Dublin, Ireland
Current Conditions -  °F | °C
As of 4:00 PM on Saturday 25 Oct 2014 (Local Time) from EIDW Reporting Station
Broken Clouds Broken Clouds  
Wind Chill: 12°   Ceiling: 5000
Heat Index: 12°   Visibility: 6mi
Dew Point:   Wind: 18mph
Humidity: 72%   Direction: 230°SW
Pressure: 29.85"   Gusts: 30mph
Location:  53.33°N, 6.25°W
Report Text: EIDW 251600Z 23016G26KT 9999 FEW020 BKN050 12/07 Q1011 NOSIG
Loading
Personal Weather Stations






























Interactive Weather Map
Tropical Storm Tracking
New forecast layout! Learn more

10-Day Weather Forecast

Advertisements
Track Severe Weather on mobile